createdAt,value
2018-03-22T00:02:49.061Z,97877.81
2018-03-22T00:04:26.473Z,97785.51
2018-03-22T00:06:05.462Z,97769.00
2018-03-22T00:07:43.011Z,97844.72
2018-03-22T00:09:21.158Z,97829.06
2018-03-22T00:10:58.986Z,97925.39
2018-03-22T00:12:36.541Z,97932.34
2018-03-22T00:14:14.922Z,97920.53
2018-03-22T00:15:53.574Z,97771.19
2018-03-22T00:17:32.922Z,97580.65
2018-03-22T00:20:48.060Z,97429.89
2018-03-22T00:22:38.444Z,97411.25
2018-03-22T00:24:16.193Z,97285.78
2018-03-22T00:25:53.574Z,97258.91
2018-03-22T00:27:31.985Z,97301.81
2018-03-22T00:29:11.135Z,97476.77
2018-03-22T00:30:49.796Z,97562.78
2018-03-22T00:32:27.478Z,97657.59
2018-03-22T00:35:49.203Z,97759.41
2018-03-22T00:37:26.593Z,97812.93
2018-03-22T00:39:04.376Z,97818.98
2018-03-22T00:40:42.231Z,97879.91
2018-03-22T00:42:21.105Z,97874.33
2018-03-22T00:43:58.813Z,97810.31
2018-03-22T00:45:37.108Z,97920.16
2018-03-22T00:47:15.376Z,97844.23
2018-03-22T00:48:53.618Z,97778.62
2018-03-22T00:50:31.381Z,97738.55
2018-03-22T00:52:10.333Z,97870.83
2018-03-22T00:53:49.129Z,97903.98
2018-03-22T00:55:26.604Z,97949.30
2018-03-22T00:57:04.200Z,97982.84
2018-03-22T00:58:42.022Z,97867.75
2018-03-22T01:00:24.792Z,97765.53
2018-03-22T01:02:03.541Z,97846.99
2018-03-22T01:03:45.640Z,97890.42
2018-03-22T01:05:23.842Z,97859.11
2018-03-22T01:07:02.587Z,97792.95
2018-03-22T01:08:41.180Z,97766.36
2018-03-22T01:10:19.249Z,97731.20
2018-03-22T01:11:57.002Z,97724.66
2018-03-22T01:13:35.236Z,97821.26
2018-03-22T01:15:16.987Z,97909.27
2018-03-22T01:16:56.450Z,97992.02
2018-03-22T01:18:36.259Z,97975.83
2018-03-22T01:20:14.098Z,97955.83
2018-03-22T01:21:52.038Z,97889.56
2018-03-22T01:23:30.927Z,97954.12
2018-03-22T01:25:08.703Z,97787.29
2018-03-22T01:26:46.359Z,97782.95
2018-03-22T01:28:23.899Z,97833.46
2018-03-22T01:30:02.807Z,97730.74
2018-03-22T01:31:42.352Z,97663.74
2018-03-22T01:33:20.266Z,97689.88
2018-03-22T01:34:58.058Z,97694.20
2018-03-22T01:36:36.294Z,97716.82
2018-03-22T01:38:14.295Z,97828.58
2018-03-22T01:39:53.207Z,97857.39
2018-03-22T01:41:31.361Z,97904.05
2018-03-22T01:43:11.376Z,97996.38
2018-03-22T01:44:49.628Z,98013.38
2018-03-22T01:46:29.481Z,98046.90
2018-03-22T01:48:07.053Z,97905.68
2018-03-22T01:49:44.680Z,97906.63
2018-03-22T01:51:22.447Z,97877.41
2018-03-22T01:53:14.810Z,97864.30
2018-03-22T01:54:52.321Z,97814.73
2018-03-22T01:56:30.154Z,97697.70
2018-03-22T01:58:07.741Z,97737.34
2018-03-22T01:59:45.267Z,97824.30
2018-03-22T02:01:23.256Z,97922.78
2018-03-22T02:03:01.183Z,97970.74
2018-03-22T02:04:40.099Z,97995.06
2018-03-22T02:06:17.750Z,97982.44
2018-03-22T02:07:56.019Z,97979.45
2018-03-22T02:09:34.792Z,97992.47
2018-03-22T02:11:12.652Z,97906.20
2018-03-22T02:12:50.244Z,97747.79
2018-03-22T02:14:28.745Z,97789.47
2018-03-22T02:16:10.581Z,97824.30
2018-03-22T02:19:46.917Z,97930.66
2018-03-22T02:21:24.529Z,97995.09
2018-03-22T02:23:02.069Z,97983.73
2018-03-22T02:24:39.764Z,97961.11
2018-03-22T02:26:17.966Z,97952.84
2018-03-22T02:27:55.044Z,97926.28
2018-03-22T02:29:31.812Z,97890.45
2018-03-22T02:31:10.162Z,97906.63
2018-03-22T02:32:48.050Z,97893.95
2018-03-22T02:34:25.587Z,97820.86
2018-03-22T02:36:03.795Z,97868.33
2018-03-22T02:37:41.853Z,97867.47
2018-03-22T02:39:19.321Z,97660.27
2018-03-22T02:40:56.877Z,97707.70
2018-03-22T02:42:33.978Z,97724.22
2018-03-22T02:44:12.437Z,97669.91
2018-03-22T02:45:51.063Z,97645.89
2018-03-22T02:47:29.936Z,97625.05
2018-03-22T02:49:07.214Z,97491.16
2018-03-22T02:50:45.088Z,97519.05
2018-03-22T02:52:22.205Z,97462.96
2018-03-22T02:54:08.453Z,97479.00
2018-03-22T02:55:46.863Z,97325.28
2018-03-22T02:57:24.322Z,97309.72
2018-03-22T02:59:01.999Z,97327.06
2018-03-22T03:00:44.948Z,97386.53
2018-03-22T03:02:22.428Z,97437.34
2018-03-22T03:04:00.133Z,97532.03
2018-03-22T03:05:37.442Z,97538.10
2018-03-22T03:07:21.454Z,97582.86
2018-03-22T03:08:58.476Z,97711.69
2018-03-22T03:10:35.547Z,97533.38
2018-03-22T03:12:12.731Z,97525.89
2018-03-22T03:13:49.769Z,97625.90
2018-03-22T03:15:27.095Z,97696.39
2018-03-22T03:17:04.001Z,97617.24
2018-03-22T03:18:41.824Z,97423.39
2018-03-22T03:20:19.603Z,97316.19
2018-03-22T03:21:58.454Z,97414.38
2018-03-22T03:23:35.206Z,97502.94
2018-03-22T03:25:12.446Z,97576.84
2018-03-22T03:26:49.477Z,97633.33
2018-03-22T03:28:26.638Z,97581.53
2018-03-22T03:30:04.813Z,97714.70
2018-03-22T03:31:42.414Z,97803.92
2018-03-22T03:33:19.220Z,97734.27
2018-03-22T03:34:56.680Z,97666.81
2018-03-22T03:36:33.815Z,97502.08
2018-03-22T03:38:10.506Z,97564.22
2018-03-22T03:39:47.566Z,97638.09
2018-03-22T03:41:25.296Z,97556.40
2018-03-22T03:43:03.074Z,97582.95
2018-03-22T03:44:40.339Z,97629.86
2018-03-22T03:46:17.587Z,97708.64
2018-03-22T03:47:55.536Z,97810.43
2018-03-22T03:49:32.453Z,97854.80
2018-03-22T03:51:09.217Z,97832.59
2018-03-22T03:52:46.546Z,97846.99
2018-03-22T03:54:24.680Z,97859.63
2018-03-22T03:56:02.873Z,97707.27
2018-03-22T03:57:41.511Z,97453.42
2018-03-22T03:59:30.201Z,97542.52
2018-03-22T04:01:07.621Z,97573.80
2018-03-22T04:02:45.613Z,97704.77
2018-03-22T04:04:22.630Z,97568.16
2018-03-22T04:06:00.759Z,97574.29
2018-03-22T04:07:38.184Z,97668.16
2018-03-22T04:09:14.845Z,97687.30
2018-03-22T04:10:52.387Z,97659.03
2018-03-22T04:12:29.392Z,97686.00
2018-03-22T04:14:06.908Z,97560.72
2018-03-22T04:15:48.877Z,97623.35
2018-03-22T04:17:25.705Z,97589.86
2018-03-22T04:19:03.251Z,97446.06
2018-03-22T04:20:40.271Z,97436.45
2018-03-22T04:22:17.889Z,97416.03
2018-03-22T04:23:54.831Z,97572.54
2018-03-22T04:25:32.254Z,97610.77
2018-03-22T04:27:09.412Z,97592.92
2018-03-22T04:28:46.554Z,97632.13
2018-03-22T04:30:24.520Z,97569.95
2018-03-22T04:32:01.742Z,97689.53
2018-03-22T04:33:39.046Z,97706.49
2018-03-22T04:35:16.563Z,97568.61
2018-03-22T04:36:53.409Z,97533.44
2018-03-22T04:38:30.458Z,97576.47
2018-03-22T04:40:08.077Z,97675.22
2018-03-22T04:41:45.547Z,97698.69
2018-03-22T04:43:22.743Z,97697.34
2018-03-22T04:45:00.135Z,97733.44
2018-03-22T04:46:36.815Z,97683.42
2018-03-22T04:48:14.059Z,97717.80
2018-03-22T04:49:50.780Z,97649.03
2018-03-22T04:51:28.229Z,97639.47
2018-03-22T04:53:05.050Z,97682.53
2018-03-22T04:54:42.055Z,97696.02
2018-03-22T04:56:19.788Z,97715.19
2018-03-22T04:57:57.003Z,97633.39
2018-03-22T04:59:33.687Z,97516.50
2018-03-22T05:01:10.926Z,97529.97
2018-03-22T05:02:50.856Z,97553.02
2018-03-22T05:04:29.135Z,97576.87
2018-03-22T05:06:06.408Z,97657.77
2018-03-22T05:07:43.784Z,97745.70
2018-03-22T05:09:20.960Z,97821.41
2018-03-22T05:10:58.407Z,97756.09
2018-03-22T05:12:35.673Z,97685.66
2018-03-22T05:14:13.596Z,97770.90
2018-03-22T05:15:51.825Z,97807.48
2018-03-22T05:17:29.452Z,97788.33
2018-03-22T05:19:06.844Z,97842.70
2018-03-22T05:20:44.004Z,97790.87
2018-03-22T05:22:21.056Z,97811.78
2018-03-22T05:23:58.842Z,97706.95
2018-03-22T05:25:35.862Z,97695.62
2018-03-22T05:27:13.844Z,97647.73
2018-03-22T05:28:51.649Z,97661.70
2018-03-22T05:30:29.549Z,97673.50
2018-03-22T05:32:07.185Z,97666.52
2018-03-22T05:33:44.783Z,97705.17
2018-03-22T05:35:24.346Z,97716.94
2018-03-22T05:37:02.681Z,97737.43
2018-03-22T05:38:40.271Z,97640.39
2018-03-22T05:40:17.836Z,97672.15
2018-03-22T05:41:55.587Z,97693.92
2018-03-22T05:43:34.019Z,97657.77
2018-03-22T05:45:14.290Z,97708.27
2018-03-22T05:46:52.257Z,97649.11
2018-03-22T05:48:29.806Z,97555.59
2018-03-22T05:50:07.430Z,97592.61
2018-03-22T05:51:45.439Z,97591.76
2018-03-22T05:53:24.260Z,97516.95
2018-03-22T05:55:02.177Z,97553.91
2018-03-22T05:56:39.900Z,97459.25
2018-03-22T05:58:18.144Z,97313.73
2018-03-22T05:59:56.427Z,97438.33
2018-03-22T06:01:34.681Z,97465.72
2018-03-22T06:03:12.799Z,97423.98
2018-03-22T06:04:50.646Z,97466.61
2018-03-22T06:06:28.273Z,97505.20
2018-03-22T06:08:06.936Z,97377.06
2018-03-22T06:09:44.614Z,97279.47
2018-03-22T06:11:22.632Z,97243.93
2018-03-22T06:13:00.159Z,97220.90
2018-03-22T06:14:38.505Z,97146.89
2018-03-22T06:16:16.762Z,97240.93
2018-03-22T06:17:54.655Z,97243.02
2018-03-22T06:19:33.247Z,97126.86
2018-03-22T06:21:12.419Z,97115.66
2018-03-22T06:22:50.249Z,97211.86
2018-03-22T06:24:30.945Z,97146.33
2018-03-22T06:26:09.142Z,97173.25
2018-03-22T06:27:53.886Z,97219.67
2018-03-22T06:29:31.600Z,97198.36
2018-03-22T06:31:09.738Z,97095.22
2018-03-22T06:32:47.815Z,97155.03
2018-03-22T06:34:26.800Z,97158.52
2018-03-22T06:36:04.666Z,96976.02
2018-03-22T06:37:43.397Z,96875.19
2018-03-22T06:39:22.436Z,96836.69
2018-03-22T06:41:00.317Z,96866.94
2018-03-22T06:42:38.145Z,97069.77
2018-03-22T06:44:17.101Z,97069.63
2018-03-22T06:45:55.730Z,96969.08
2018-03-22T06:47:33.311Z,97031.08
2018-03-22T06:49:11.254Z,96911.54
2018-03-22T06:50:49.034Z,97010.25
2018-03-22T06:52:27.007Z,97018.14
2018-03-22T06:54:04.843Z,97027.16
2018-03-22T06:55:42.628Z,97117.80
2018-03-22T06:57:23.460Z,97112.97
2018-03-22T06:59:01.723Z,97063.24
2018-03-22T07:00:39.450Z,97147.28
2018-03-22T07:02:17.332Z,97182.34
2018-03-22T07:03:55.386Z,97092.64
2018-03-22T07:05:33.585Z,97072.72
2018-03-22T07:07:11.521Z,97008.14
2018-03-22T07:08:49.069Z,96936.70
2018-03-22T07:10:26.726Z,97031.11
2018-03-22T07:12:05.099Z,97014.69
2018-03-22T07:13:42.728Z,97147.28
2018-03-22T07:15:20.489Z,97112.51
2018-03-22T07:16:58.189Z,97057.61
2018-03-22T07:18:36.806Z,97104.44
2018-03-22T07:20:15.585Z,97146.40
2018-03-22T07:21:53.233Z,97167.70
2018-03-22T07:25:05.191Z,97358.11
2018-03-22T07:26:42.773Z,97464.43
2018-03-22T07:28:20.585Z,97428.39
2018-03-22T07:29:58.446Z,97326.42
2018-03-22T07:31:36.696Z,97198.58
2018-03-22T07:33:14.212Z,97067.16
2018-03-22T07:36:22.534Z,97216.25
2018-03-22T07:38:01.028Z,97290.34
2018-03-22T07:39:38.575Z,97234.89
2018-03-22T07:41:16.948Z,97221.94
2018-03-22T07:42:59.030Z,97292.65
2018-03-22T07:44:41.542Z,97247.45
2018-03-22T07:46:19.379Z,97259.59
2018-03-22T07:47:56.970Z,97359.95
2018-03-22T07:49:35.396Z,97452.38
2018-03-22T07:51:13.133Z,97359.83
2018-03-22T07:52:50.733Z,97284.41
2018-03-22T07:54:28.920Z,97189.81
2018-03-22T07:56:07.375Z,97268.75
2018-03-22T07:57:45.566Z,97218.02
2018-03-22T07:59:23.109Z,97206.29
2018-03-22T08:01:01.229Z,97326.02
2018-03-22T08:02:39.049Z,97292.65
2018-03-22T08:04:17.139Z,97428.05
2018-03-22T08:05:54.750Z,97508.45
2018-03-22T08:07:32.826Z,97319.52
2018-03-22T08:09:10.312Z,97243.66
2018-03-22T08:10:48.238Z,97234.50
2018-03-22T08:12:25.722Z,97201.17
2018-03-22T08:14:03.369Z,97245.34
2018-03-22T08:15:41.034Z,97302.61
2018-03-22T08:17:18.930Z,97236.19
2018-03-22T08:18:56.959Z,97211.07
2018-03-22T08:20:35.621Z,97201.15
2018-03-22T08:22:13.342Z,97121.78
2018-03-22T08:23:51.931Z,97118.36
2018-03-22T08:25:29.642Z,97205.92
2018-03-22T08:27:07.438Z,97202.47
2018-03-22T08:28:45.182Z,97274.08
2018-03-22T08:30:25.849Z,97247.98
2018-03-22T08:32:03.392Z,97192.05
2018-03-22T08:33:41.462Z,97155.61
2018-03-22T08:35:18.819Z,97264.03
2018-03-22T08:36:58.188Z,97208.98
2018-03-22T08:38:36.013Z,97269.30
2018-03-22T08:40:13.400Z,97423.36
2018-03-22T08:43:26.414Z,97474.61
2018-03-22T08:45:03.752Z,97376.81
2018-03-22T08:46:41.542Z,97365.66
2018-03-22T08:48:19.063Z,97253.67
2018-03-22T08:49:57.333Z,97355.23
2018-03-22T08:51:34.777Z,97306.13
2018-03-22T08:53:12.941Z,97333.95
2018-03-22T08:54:50.171Z,97376.08
2018-03-22T08:56:27.969Z,97451.23
2018-03-22T08:58:05.318Z,97189.94
2018-03-22T08:59:42.873Z,97071.23
2018-03-22T09:01:20.626Z,96967.23
2018-03-22T09:02:59.386Z,97033.97
2018-03-22T09:04:36.749Z,96982.36
2018-03-22T09:06:14.166Z,96977.59
2018-03-22T09:07:51.600Z,96971.94
2018-03-22T09:09:29.474Z,97149.25
2018-03-22T09:12:41.801Z,97082.13
2018-03-22T09:14:19.184Z,97168.32
2018-03-22T09:15:57.221Z,97300.64
2018-03-22T09:17:34.570Z,97368.32
2018-03-22T09:19:11.976Z,97340.12
2018-03-22T09:20:49.171Z,97332.70
2018-03-22T09:22:26.971Z,97189.08
2018-03-22T09:24:04.530Z,97027.87
2018-03-22T09:25:41.813Z,97008.82
2018-03-22T09:27:18.942Z,97145.33
2018-03-22T09:28:57.237Z,97162.72
2018-03-22T09:30:34.532Z,97256.86
2018-03-22T09:32:11.793Z,97343.61
2018-03-22T09:33:48.932Z,97324.06
2018-03-22T09:35:26.968Z,97412.22
2018-03-22T09:37:04.339Z,97463.08
2018-03-22T09:38:42.509Z,97560.77
2018-03-22T09:40:19.922Z,97599.48
2018-03-22T09:41:57.611Z,97534.22
2018-03-22T09:43:35.535Z,97517.74
2018-03-22T09:45:15.113Z,97447.34
2018-03-22T09:46:52.290Z,97506.91
2018-03-22T09:48:29.745Z,97520.35
2018-03-22T09:50:07.504Z,97528.64
2018-03-22T09:51:44.881Z,97392.30
2018-03-22T09:53:23.015Z,97378.41
2018-03-22T09:55:00.591Z,97465.25
2018-03-22T09:56:37.709Z,97449.95
2018-03-22T09:58:15.000Z,97455.65
2018-03-22T09:59:51.984Z,97467.89
2018-03-22T10:01:29.889Z,97450.44
2018-03-22T10:03:06.795Z,97348.00
2018-03-22T10:04:44.657Z,97364.15
2018-03-22T10:06:22.690Z,97467.48
2018-03-22T10:08:00.766Z,97464.82
2018-03-22T10:09:38.164Z,97348.88
2018-03-22T10:11:15.257Z,97340.33
2018-03-22T10:12:53.667Z,97462.67
2018-03-22T10:14:31.155Z,97412.71
2018-03-22T10:16:08.453Z,97564.45
2018-03-22T10:17:45.834Z,97649.16
2018-03-22T10:19:23.624Z,97609.52
2018-03-22T10:21:00.895Z,97439.67
2018-03-22T10:22:38.155Z,97531.80
2018-03-22T10:24:15.224Z,97636.16
2018-03-22T10:25:53.607Z,97611.38
2018-03-22T10:27:30.713Z,97555.64
2018-03-22T10:29:08.092Z,97569.60
2018-03-22T10:30:45.636Z,97618.75
2018-03-22T10:32:24.025Z,97592.17
2018-03-22T10:34:01.061Z,97651.42
2018-03-22T10:35:38.129Z,97557.42
2018-03-22T10:37:16.005Z,97612.30
2018-03-22T10:38:53.593Z,97761.97
2018-03-22T10:40:30.543Z,97749.31
2018-03-22T10:42:08.341Z,97711.44
2018-03-22T10:43:45.723Z,97715.39
2018-03-22T10:47:14.004Z,97716.25
2018-03-22T10:48:50.989Z,97811.58
2018-03-22T10:52:09.430Z,97922.64
2018-03-22T10:53:46.272Z,97902.97
2018-03-22T10:55:23.257Z,97860.34
2018-03-22T10:57:00.302Z,97891.27
2018-03-22T10:58:37.927Z,97879.98
2018-03-22T11:00:21.786Z,97692.78
2018-03-22T11:02:01.807Z,97655.95
2018-03-22T11:03:42.715Z,97694.97
2018-03-22T11:05:20.208Z,97712.44
2018-03-22T11:06:57.410Z,97872.17
2018-03-22T11:08:34.617Z,97932.22
2018-03-22T11:10:12.346Z,97984.17
2018-03-22T11:11:49.966Z,97989.37
2018-03-22T11:13:27.193Z,97978.51
2018-03-22T11:15:04.335Z,98073.58
2018-03-22T11:16:41.583Z,98072.69
2018-03-22T11:18:19.134Z,98129.87
2018-03-22T11:19:56.464Z,98144.73
2018-03-22T11:21:33.695Z,98190.52
2018-03-22T11:23:10.869Z,98109.78
2018-03-22T11:24:49.174Z,98091.49
2018-03-22T11:26:26.127Z,98147.38
2018-03-22T11:28:03.159Z,98135.94
2018-03-22T11:29:40.987Z,98108.06
2018-03-22T11:31:19.187Z,98030.91
2018-03-22T11:32:56.263Z,98101.58
2018-03-22T11:34:33.406Z,98109.47
2018-03-22T11:36:10.418Z,98205.82
2018-03-22T11:37:48.506Z,98179.61
2018-03-22T11:39:26.324Z,98189.70
2018-03-22T11:41:04.340Z,98184.44
2018-03-22T11:42:42.272Z,98128.57
2018-03-22T11:44:20.484Z,98177.48
2018-03-22T11:45:57.840Z,98256.05
2018-03-22T11:47:34.954Z,98300.19
2018-03-22T11:49:11.982Z,98209.39
2018-03-22T11:50:49.384Z,98254.81
2018-03-22T11:52:26.314Z,98300.65
2018-03-22T11:54:03.331Z,98276.25
2018-03-22T11:55:40.267Z,98284.92
2018-03-22T11:57:17.752Z,98361.33
2018-03-22T11:58:54.812Z,98355.22
2018-03-22T12:00:33.678Z,98336.47
2018-03-22T12:02:12.018Z,98341.25
2018-03-22T12:03:49.954Z,98312.88
2018-03-22T12:05:27.681Z,98257.43
2018-03-22T12:07:04.686Z,98225.56
2018-03-22T12:08:41.937Z,98249.16
2018-03-22T12:10:18.975Z,98233.45
2018-03-22T12:11:56.754Z,98160.14
2018-03-22T12:13:33.731Z,98193.78
2018-03-22T12:15:12.096Z,98199.85
2018-03-22T12:16:51.508Z,98233.47
2018-03-22T12:18:28.598Z,98244.38
2018-03-22T12:20:06.114Z,98237.41
2018-03-22T12:21:43.540Z,98258.38
2018-03-22T12:23:20.811Z,98270.66
2018-03-22T12:24:58.878Z,98286.33
2018-03-22T12:26:37.160Z,98303.80
2018-03-22T12:28:15.574Z,98271.90
2018-03-22T12:29:52.533Z,98264.85
2018-03-22T12:31:29.909Z,98308.59
2018-03-22T12:33:06.989Z,98358.78
2018-03-22T12:34:45.351Z,98306.02
2018-03-22T12:36:22.258Z,98192.48
2018-03-22T12:38:00.120Z,98275.44
2018-03-22T12:39:37.224Z,98305.53
2018-03-22T12:41:15.230Z,98337.92
2018-03-22T12:42:52.393Z,98354.48
2018-03-22T12:44:29.524Z,98370.22
2018-03-22T12:46:07.482Z,98430.01
2018-03-22T12:47:44.851Z,98497.31
2018-03-22T12:49:21.900Z,98524.49
2018-03-22T12:50:58.951Z,98465.00
2018-03-22T12:52:36.406Z,98438.36
2018-03-22T12:54:14.138Z,98423.98
2018-03-22T12:55:52.234Z,98462.88
2018-03-22T12:57:29.125Z,98484.30
2018-03-22T12:59:06.325Z,98501.39
2018-03-22T13:00:44.240Z,98396.91
2018-03-22T13:02:21.677Z,98436.20
2018-03-22T13:03:59.328Z,98485.70
2018-03-22T13:05:36.536Z,98476.48
2018-03-22T13:07:14.144Z,98508.80
2018-03-22T13:08:52.202Z,98505.80
2018-03-22T13:10:30.048Z,98494.41
2018-03-22T13:12:07.141Z,98571.38
2018-03-22T13:13:44.179Z,98620.87
2018-03-22T13:15:21.731Z,98663.72
2018-03-22T13:17:02.186Z,98702.66
2018-03-22T13:18:41.794Z,98792.89
2018-03-22T13:20:19.518Z,98821.39
2018-03-22T13:21:56.907Z,98887.11
2018-03-22T13:23:35.769Z,98934.02
2018-03-22T13:25:13.428Z,98918.66
2018-03-22T13:26:50.639Z,98919.98
2018-03-22T13:28:28.743Z,98892.38
2018-03-22T13:30:05.875Z,98884.54
2018-03-22T13:31:43.456Z,98916.11
2018-03-22T13:33:20.677Z,98891.98
2018-03-22T13:34:58.004Z,98918.74
2018-03-22T13:36:35.349Z,98888.55
2018-03-22T13:38:13.558Z,98970.46
2018-03-22T13:39:50.676Z,98955.55
2018-03-22T13:41:27.869Z,98939.42
2018-03-22T13:43:05.771Z,98935.86
2018-03-22T13:46:16.459Z,99007.35
2018-03-22T13:47:54.539Z,99072.75
2018-03-22T13:49:32.961Z,99055.64
2018-03-22T13:51:11.305Z,98992.86
2018-03-22T13:52:49.179Z,98857.45
2018-03-22T13:54:27.776Z,98829.47
2018-03-22T13:56:06.210Z,98847.45
2018-03-22T13:57:44.134Z,98841.72
2018-03-22T13:59:22.051Z,98840.83
2018-03-22T14:00:59.652Z,98821.17
2018-03-22T14:02:38.257Z,98825.52
2018-03-22T14:04:15.360Z,98895.22
2018-03-22T14:05:52.753Z,98962.71
2018-03-22T14:07:29.665Z,99029.34
2018-03-22T14:09:07.345Z,99100.02
2018-03-22T14:10:45.481Z,99106.57
2018-03-22T14:12:22.633Z,99103.06
2018-03-22T14:14:00.029Z,99105.27
2018-03-22T14:15:38.674Z,99165.91
2018-03-22T14:17:15.896Z,99234.83
2018-03-22T14:18:53.201Z,99262.53
2018-03-22T14:20:31.198Z,99272.16
2018-03-22T14:22:09.258Z,99245.34
2018-03-22T14:23:46.406Z,99198.42
2018-03-22T14:25:23.468Z,99156.69
2018-03-22T14:27:01.297Z,99172.02
2018-03-22T14:28:38.774Z,99201.03
2018-03-22T14:30:18.049Z,99248.44
2018-03-22T14:31:55.356Z,99303.84
2018-03-22T14:33:32.721Z,99288.94
2018-03-22T14:35:09.749Z,99075.98
2018-03-22T14:36:47.641Z,98973.80
2018-03-22T14:38:25.470Z,99061.95
2018-03-22T14:40:02.564Z,99212.97
2018-03-22T14:41:41.810Z,99286.30
2018-03-22T14:44:56.624Z,99365.45
2018-03-22T14:46:34.095Z,99434.02
2018-03-22T14:48:11.588Z,99406.74
2018-03-22T14:49:50.232Z,99316.66
2018-03-22T14:51:28.026Z,99334.24
2018-03-22T14:53:05.220Z,99223.57
2018-03-22T14:54:42.608Z,99234.14
2018-03-22T14:56:19.796Z,99320.17
2018-03-22T14:57:57.896Z,99470.09
2018-03-22T14:59:34.961Z,99495.70
2018-03-22T15:01:12.601Z,99477.16
2018-03-22T15:02:49.590Z,99450.80
2018-03-22T15:04:27.389Z,99428.84
2018-03-22T15:06:04.365Z,99453.00
2018-03-22T15:07:42.799Z,99430.63
2018-03-22T15:09:19.940Z,99291.69
2018-03-22T15:10:56.974Z,99332.16
2018-03-22T15:12:34.140Z,99325.52
2018-03-22T15:14:11.650Z,99448.66
2018-03-22T15:15:48.941Z,99588.92
2018-03-22T15:17:26.892Z,99645.25
2018-03-22T15:19:04.974Z,99642.19
2018-03-22T15:20:42.424Z,99571.33
2018-03-22T15:22:19.620Z,99533.08
2018-03-22T15:23:56.857Z,99551.99
2018-03-22T15:25:34.702Z,99609.69
2018-03-22T15:27:12.571Z,99660.73
2018-03-22T15:28:49.664Z,99551.55
2018-03-22T15:30:29.545Z,99592.09
2018-03-22T15:32:06.799Z,99575.30
2018-03-22T15:33:44.356Z,99614.53
2018-03-22T15:35:21.569Z,99634.34
2018-03-22T15:36:58.667Z,99653.27
2018-03-22T15:38:35.712Z,99742.64
2018-03-22T15:40:14.111Z,99749.28
2018-03-22T15:43:38.127Z,99608.38
2018-03-22T15:45:17.379Z,99592.55
2018-03-22T15:46:55.183Z,99678.41
2018-03-22T15:48:33.050Z,99719.81
2018-03-22T15:50:10.176Z,99724.20
2018-03-22T15:51:47.261Z,99714.97
2018-03-22T15:53:26.710Z,99591.68
2018-03-22T15:55:04.534Z,99530.55
2018-03-22T15:56:41.709Z,99533.16
2018-03-22T15:58:18.822Z,99521.31
2018-03-22T15:59:56.862Z,99553.02
2018-03-22T16:01:34.546Z,99608.43
2018-03-22T16:03:11.699Z,99466.82
2018-03-22T16:04:48.774Z,99355.98
2018-03-22T16:06:34.541Z,99293.63
2018-03-22T16:08:11.810Z,99450.11
2018-03-22T16:09:48.732Z,99467.73
2018-03-22T16:11:26.722Z,99613.73
2018-03-22T16:13:04.044Z,99724.64
2018-03-22T16:14:41.829Z,99697.77
2018-03-22T16:16:19.215Z,99689.48
2018-03-22T16:17:56.168Z,99656.47
2018-03-22T16:19:33.557Z,99607.55
2018-03-22T16:21:10.661Z,99567.99
2018-03-22T16:22:48.567Z,99508.60
2018-03-22T16:24:25.811Z,99509.08
2018-03-22T16:26:03.875Z,99492.81
2018-03-22T16:27:41.559Z,99451.00
2018-03-22T16:29:19.206Z,99420.22
2018-03-22T16:30:56.550Z,99411.88
2018-03-22T16:32:34.233Z,99404.45
2018-03-22T16:34:11.268Z,99439.17
2018-03-22T16:35:48.362Z,99391.22
2018-03-22T16:37:25.353Z,99397.41
2018-03-22T16:39:03.814Z,99371.00
2018-03-22T16:40:40.991Z,99378.52
2018-03-22T16:42:18.228Z,99382.84
2018-03-22T16:43:55.289Z,99403.58
2018-03-22T16:45:32.594Z,99393.41
2018-03-22T16:47:09.643Z,99373.24
2018-03-22T16:48:46.732Z,99305.55
2018-03-22T16:50:23.842Z,99305.57
2018-03-22T16:52:01.221Z,99343.78
2018-03-22T16:53:38.245Z,99357.84
2018-03-22T16:55:16.006Z,99348.20
2018-03-22T16:56:53.008Z,99339.77
2018-03-22T16:58:31.479Z,99349.97
2018-03-22T17:00:08.562Z,99290.58
2018-03-22T17:01:46.126Z,99291.91
2018-03-22T17:03:24.183Z,99194.02
2018-03-22T17:05:01.546Z,99181.70
2018-03-22T17:06:38.760Z,99202.42
2018-03-22T17:08:16.714Z,99229.14
2018-03-22T17:10:00.313Z,99244.09
2018-03-22T17:11:38.477Z,99300.30
2018-03-22T17:13:15.389Z,99313.50
2018-03-22T17:14:52.368Z,99360.06
2018-03-22T17:16:29.581Z,99355.72
2018-03-22T17:18:07.431Z,99408.92
2018-03-22T17:19:44.478Z,99422.52
2018-03-22T17:21:22.339Z,99471.36
2018-03-22T17:22:59.455Z,99469.16
2018-03-22T17:24:37.095Z,99470.95
2018-03-22T17:26:14.872Z,99516.19
2018-03-22T17:27:51.913Z,99531.19
2018-03-22T17:29:28.896Z,99506.09
2018-03-22T17:31:06.621Z,99496.42
2018-03-22T17:32:44.126Z,99523.72
2018-03-22T17:34:21.537Z,99477.55
2018-03-22T17:35:58.677Z,99446.75
2018-03-22T17:37:36.097Z,99445.85
2018-03-22T17:39:12.973Z,99407.17
2018-03-22T17:40:50.892Z,99378.66
2018-03-22T17:42:28.150Z,99265.23
2018-03-22T17:44:05.688Z,99221.79
2018-03-22T17:45:43.025Z,99189.34
2018-03-22T17:47:20.404Z,99179.64
2018-03-22T17:48:57.348Z,99194.53
2018-03-22T17:50:34.672Z,99169.11
2018-03-22T17:52:12.426Z,99167.83
2018-03-22T17:53:49.284Z,99132.68
2018-03-22T17:55:26.482Z,99155.09
2018-03-22T17:57:04.024Z,99166.02
2018-03-22T17:58:41.347Z,99191.92
2018-03-22T18:00:20.023Z,99263.05
2018-03-22T18:01:57.163Z,99325.46
2018-03-22T18:03:35.116Z,99356.69
2018-03-22T18:05:12.458Z,99365.89
2018-03-22T18:06:50.394Z,99368.55
2018-03-22T18:08:27.644Z,99430.52
2018-03-22T18:10:05.190Z,99420.01
2018-03-22T18:11:42.575Z,99437.14
2018-03-22T18:13:22.055Z,99453.84
2018-03-22T18:14:59.060Z,99457.84
2018-03-22T18:16:38.527Z,99428.82
2018-03-22T18:18:15.441Z,99362.41
2018-03-22T18:19:53.507Z,99321.52
2018-03-22T18:21:30.504Z,99311.89
2018-03-22T18:23:10.218Z,99290.34
2018-03-22T18:24:47.509Z,99280.70
2018-03-22T18:26:24.543Z,99262.27
2018-03-22T18:28:02.298Z,99255.22
2018-03-22T18:29:39.926Z,99213.50
2018-03-22T18:31:17.189Z,99227.12
2018-03-22T18:32:54.128Z,99278.08
2018-03-22T18:34:31.432Z,99308.42
2018-03-22T18:36:09.050Z,99319.47
2018-03-22T18:37:47.024Z,99286.42
2018-03-22T18:39:24.069Z,99351.48
2018-03-22T18:41:02.035Z,99357.66
2018-03-22T18:42:40.276Z,99398.08
2018-03-22T18:44:17.343Z,99383.11
2018-03-22T18:45:54.604Z,99313.16
2018-03-22T18:47:32.268Z,99279.41
2018-03-22T18:49:10.447Z,99213.95
2018-03-22T18:50:48.312Z,99145.94
2018-03-22T18:52:26.197Z,99105.06
2018-03-22T18:54:03.390Z,99085.35
2018-03-22T18:55:40.827Z,99061.23
2018-03-22T18:57:18.315Z,99122.23
2018-03-22T18:58:55.402Z,99092.36
2018-03-22T19:00:35.183Z,98992.34
2018-03-22T19:02:14.744Z,98965.22
2018-03-22T19:03:52.600Z,98916.55
2018-03-22T19:05:30.437Z,98933.19
2018-03-22T19:07:07.813Z,98953.34
2018-03-22T19:08:46.687Z,98980.16
2018-03-22T19:12:11.924Z,99045.92
2018-03-22T19:13:50.458Z,99071.80
2018-03-22T19:15:29.675Z,99066.52
2018-03-22T19:17:07.191Z,99048.09
2018-03-22T19:18:45.833Z,98996.34
2018-03-22T19:20:23.726Z,99001.61
2018-03-22T19:22:01.123Z,99013.03
2018-03-22T19:23:38.317Z,99027.09
2018-03-22T19:25:16.278Z,99028.38
2018-03-22T19:26:53.955Z,99053.38
2018-03-22T19:28:31.776Z,99047.27
2018-03-22T19:30:09.073Z,99013.05
2018-03-22T19:31:47.312Z,98987.17
2018-03-22T19:33:24.710Z,99010.44